createdAt,value
2022-12-24T00:00:00.233Z,6.10
2022-12-24T00:02:27.358Z,7.00
2022-12-24T00:05:00.437Z,6.20
2022-12-24T00:07:27.456Z,4.80
2022-12-24T00:09:53.831Z,4.50
2022-12-24T00:12:20.404Z,4.10
2022-12-24T00:14:46.908Z,4.10
2022-12-24T00:17:13.449Z,4.80
2022-12-24T00:19:39.880Z,4.60
2022-12-24T00:22:06.324Z,4.90
2022-12-24T00:24:32.753Z,4.70
2022-12-24T00:26:59.188Z,4.80
2022-12-24T00:29:25.713Z,4.40
2022-12-24T00:31:52.111Z,4.50
2022-12-24T00:34:18.592Z,4.20
2022-12-24T00:36:44.975Z,5.30
2022-12-24T00:39:11.482Z,5.30
2022-12-24T00:41:37.831Z,5.50
2022-12-24T00:44:06.588Z,4.30
2022-12-24T00:46:34.691Z,4.30
2022-12-24T00:49:02.022Z,4.30
2022-12-24T00:51:28.945Z,4.30
2022-12-24T00:53:55.505Z,4.30
2022-12-24T00:56:22.678Z,4.40
2022-12-24T00:58:49.592Z,4.50
2022-12-24T01:01:16.615Z,5.00
2022-12-24T01:03:43.728Z,4.90
2022-12-24T01:06:17.672Z,5.30
2022-12-24T01:08:44.648Z,4.70
2022-12-24T01:11:12.986Z,4.90
2022-12-24T01:13:40.152Z,4.60
2022-12-24T01:16:16.946Z,4.00
2022-12-24T01:18:43.489Z,3.40
2022-12-24T01:21:09.970Z,3.10
2022-12-24T01:23:36.420Z,2.80
2022-12-24T01:26:04.816Z,3.00
2022-12-24T01:28:31.885Z,2.60
2022-12-24T01:30:58.330Z,3.20
2022-12-24T01:33:24.739Z,2.80
2022-12-24T01:35:51.127Z,3.10
2022-12-24T01:38:17.489Z,3.10
2022-12-24T01:41:02.511Z,3.40
2022-12-24T01:43:31.409Z,3.70
2022-12-24T01:46:07.131Z,3.50
2022-12-24T01:48:45.073Z,3.80
2022-12-24T01:51:42.509Z,4.10
2022-12-24T01:54:20.701Z,4.20
2022-12-24T01:56:52.718Z,5.10
2022-12-24T01:59:21.076Z,4.50
2022-12-24T02:01:51.019Z,5.40
2022-12-24T02:04:51.681Z,5.30
2022-12-24T02:07:18.137Z,5.20
2022-12-24T02:09:44.576Z,6.10
2022-12-24T02:12:11.180Z,5.70
2022-12-24T02:14:38.044Z,5.40
2022-12-24T02:17:23.238Z,5.80
2022-12-24T02:19:58.749Z,5.80
2022-12-24T02:22:28.141Z,5.60
2022-12-24T02:25:03.398Z,5.60
2022-12-24T02:27:38.329Z,5.60
2022-12-24T02:30:06.987Z,5.70
2022-12-24T02:32:56.767Z,6.10
2022-12-24T02:35:58.400Z,6.10
2022-12-24T02:38:49.043Z,6.00
2022-12-24T02:41:50.025Z,6.40
2022-12-24T02:44:19.168Z,6.30
2022-12-24T02:46:46.683Z,5.90
2022-12-24T02:49:13.802Z,6.10
2022-12-24T02:51:40.261Z,5.90
2022-12-24T02:54:07.249Z,6.10
2022-12-24T02:56:41.418Z,6.60
2022-12-24T02:59:10.808Z,6.20
2022-12-24T03:02:19.502Z,5.50
2022-12-24T03:05:33.996Z,6.50
2022-12-24T03:08:12.362Z,5.70
2022-12-24T03:10:51.937Z,5.60
2022-12-24T03:13:21.031Z,5.10
2022-12-24T03:15:48.941Z,3.80
2022-12-24T03:18:20.412Z,2.70
2022-12-24T03:21:00.721Z,3.10
2022-12-24T03:23:27.453Z,2.80
2022-12-24T03:25:54.547Z,3.00
2022-12-24T03:28:26.907Z,2.70
2022-12-24T03:30:53.983Z,2.80
2022-12-24T03:33:20.588Z,2.70
2022-12-24T03:35:47.154Z,2.60
2022-12-24T03:38:13.653Z,2.80
2022-12-24T03:40:40.092Z,2.40
2022-12-24T03:43:06.454Z,2.20
2022-12-24T03:45:32.973Z,2.10
2022-12-24T03:47:59.428Z,2.30
2022-12-24T03:50:25.832Z,1.90
2022-12-24T03:52:52.303Z,2.20
2022-12-24T03:55:18.669Z,2.20
2022-12-24T03:57:45.072Z,2.40
2022-12-24T04:00:12.022Z,2.20
2022-12-24T04:02:38.615Z,2.10
2022-12-24T04:05:05.737Z,2.20
2022-12-24T04:07:33.529Z,2.60
2022-12-24T04:10:00.044Z,2.30
2022-12-24T04:12:26.515Z,2.90
2022-12-24T04:14:52.895Z,2.40
2022-12-24T04:17:19.285Z,2.20
2022-12-24T04:19:45.695Z,2.20
2022-12-24T04:22:12.091Z,2.80
2022-12-24T04:24:38.557Z,2.80
2022-12-24T04:27:04.966Z,2.40
2022-12-24T04:29:31.340Z,2.00
2022-12-24T04:31:57.791Z,2.80
2022-12-24T04:34:24.254Z,2.10
2022-12-24T04:36:50.626Z,2.70
2022-12-24T04:39:17.059Z,2.70
2022-12-24T04:41:43.536Z,2.70
2022-12-24T04:44:10.538Z,2.70
2022-12-24T04:46:37.103Z,2.70
2022-12-24T04:49:03.473Z,2.60
2022-12-24T04:51:29.981Z,2.30
2022-12-24T04:53:56.912Z,2.30
2022-12-24T04:56:26.622Z,2.40
2022-12-24T04:58:53.680Z,2.40
2022-12-24T05:01:23.173Z,2.40
2022-12-24T05:03:50.652Z,2.80
2022-12-24T05:06:20.591Z,2.00
2022-12-24T05:08:47.076Z,1.80
2022-12-24T05:11:15.518Z,2.90
2022-12-24T05:13:47.447Z,2.20
2022-12-24T05:16:15.874Z,2.00
2022-12-24T05:18:42.435Z,2.20
2022-12-24T05:21:19.810Z,3.50
2022-12-24T05:24:04.830Z,2.10
2022-12-24T05:26:39.004Z,2.30
2022-12-24T05:29:06.537Z,2.40
2022-12-24T05:31:34.017Z,2.30
2022-12-24T05:34:01.664Z,2.40
2022-12-24T05:36:28.298Z,2.20
2022-12-24T05:38:54.902Z,2.20
2022-12-24T05:41:22.851Z,2.90
2022-12-24T05:43:50.044Z,2.60
2022-12-24T05:46:19.322Z,2.20
2022-12-24T05:48:47.068Z,2.20
2022-12-24T05:51:15.391Z,2.30
2022-12-24T05:53:41.989Z,2.50
2022-12-24T05:56:11.528Z,2.60
2022-12-24T05:58:39.197Z,2.40
2022-12-24T06:01:06.241Z,2.30
2022-12-24T06:03:33.761Z,2.90
2022-12-24T06:06:08.377Z,2.80
2022-12-24T06:08:36.558Z,3.00
2022-12-24T06:11:05.304Z,3.20
2022-12-24T06:13:32.153Z,3.40
2022-12-24T06:16:00.868Z,2.60
2022-12-24T06:18:29.546Z,2.90
2022-12-24T06:20:56.911Z,3.50
2022-12-24T06:23:24.278Z,3.30
2022-12-24T06:25:50.993Z,3.20
2022-12-24T06:28:17.498Z,3.20
2022-12-24T06:30:48.777Z,3.40
2022-12-24T06:33:16.055Z,3.60
2022-12-24T06:35:44.344Z,4.10
2022-12-24T06:38:10.757Z,3.60
2022-12-24T06:40:41.301Z,3.40
2022-12-24T06:43:07.786Z,3.20
2022-12-24T06:45:34.241Z,3.60
2022-12-24T06:48:01.175Z,4.10
2022-12-24T06:50:28.245Z,4.00
2022-12-24T06:52:54.626Z,3.60
2022-12-24T06:55:21.043Z,3.20
2022-12-24T06:57:47.480Z,4.20
2022-12-24T07:00:14.616Z,3.70
2022-12-24T07:02:44.476Z,3.80
2022-12-24T07:05:12.517Z,3.70
2022-12-24T07:07:41.072Z,3.80
2022-12-24T07:10:10.296Z,4.00
2022-12-24T07:12:36.718Z,3.80
2022-12-24T07:15:03.284Z,4.50
2022-12-24T07:17:29.880Z,4.10
2022-12-24T07:19:56.304Z,3.50
2022-12-24T07:22:22.705Z,3.50
2022-12-24T07:24:49.098Z,3.20
2022-12-24T07:27:15.480Z,3.70
2022-12-24T07:29:41.923Z,3.20
2022-12-24T07:32:08.921Z,2.70
2022-12-24T07:34:35.712Z,3.00
2022-12-24T07:37:02.236Z,3.20
2022-12-24T07:39:28.645Z,3.30
2022-12-24T07:41:55.054Z,3.20
2022-12-24T07:44:21.523Z,3.50
2022-12-24T07:46:47.967Z,2.90
2022-12-24T07:49:14.388Z,3.20
2022-12-24T07:51:40.772Z,3.20
2022-12-24T07:54:07.218Z,3.10
2022-12-24T07:56:34.520Z,3.30
2022-12-24T07:59:00.952Z,3.40
2022-12-24T08:01:27.435Z,3.00
2022-12-24T08:03:54.831Z,3.90
2022-12-24T08:06:21.905Z,2.90
2022-12-24T08:08:48.347Z,3.10
2022-12-24T08:11:16.343Z,2.80
2022-12-24T08:13:42.774Z,2.80
2022-12-24T08:16:09.253Z,2.80
2022-12-24T08:18:35.743Z,3.10
2022-12-24T08:21:02.107Z,3.10
2022-12-24T08:23:28.544Z,3.60
2022-12-24T08:25:55.066Z,3.40
2022-12-24T08:28:21.485Z,3.40
2022-12-24T08:30:50.162Z,3.50
2022-12-24T08:33:17.054Z,3.10
2022-12-24T08:35:53.438Z,3.30
2022-12-24T08:38:20.798Z,2.40
2022-12-24T08:40:49.840Z,3.00
2022-12-24T08:43:17.599Z,3.10
2022-12-24T08:45:44.365Z,3.10
2022-12-24T08:48:10.850Z,3.10
2022-12-24T08:50:41.339Z,2.70
2022-12-24T08:53:09.140Z,3.30
2022-12-24T08:55:36.159Z,3.30
2022-12-24T08:58:02.666Z,3.80
2022-12-24T09:00:29.573Z,3.40
2022-12-24T09:02:56.912Z,3.30
2022-12-24T09:05:23.695Z,2.90
2022-12-24T09:07:50.081Z,3.50
2022-12-24T09:10:17.169Z,4.10
2022-12-24T09:12:43.634Z,4.20
2022-12-24T09:15:10.644Z,4.20
2022-12-24T09:17:37.890Z,3.80
2022-12-24T09:20:06.937Z,4.10
2022-12-24T09:22:38.440Z,4.30
2022-12-24T09:25:10.439Z,5.10
2022-12-24T09:27:37.244Z,5.80
2022-12-24T09:30:05.005Z,5.80
2022-12-24T09:32:31.503Z,6.20
2022-12-24T09:34:57.980Z,5.90
2022-12-24T09:37:24.460Z,6.00
2022-12-24T09:39:50.919Z,6.60
2022-12-24T09:42:35.648Z,6.70
2022-12-24T09:45:20.837Z,5.30
2022-12-24T09:47:52.453Z,6.70
2022-12-24T09:50:41.706Z,5.90
2022-12-24T09:53:24.483Z,5.50
2022-12-24T09:55:55.620Z,6.60
2022-12-24T09:58:42.079Z,5.70
2022-12-24T10:01:12.895Z,6.00
2022-12-24T10:03:39.882Z,5.60
2022-12-24T10:06:12.317Z,6.10
2022-12-24T10:09:13.972Z,5.70
2022-12-24T10:11:52.528Z,5.60
2022-12-24T10:14:44.685Z,5.40
2022-12-24T10:17:48.873Z,5.30
2022-12-24T10:20:50.810Z,5.90
2022-12-24T10:23:37.144Z,5.40
2022-12-24T10:26:20.578Z,5.00
2022-12-24T10:28:53.570Z,5.80
2022-12-24T10:31:31.235Z,6.20
2022-12-24T10:34:04.968Z,5.80
2022-12-24T10:36:32.223Z,4.60
2022-12-24T10:38:59.214Z,4.80
2022-12-24T10:41:28.037Z,4.40
2022-12-24T10:43:55.260Z,4.80
2022-12-24T10:46:24.348Z,4.80
2022-12-24T10:48:53.292Z,4.90
2022-12-24T10:51:27.204Z,4.20
2022-12-24T10:54:06.745Z,4.60
2022-12-24T10:56:40.547Z,4.40
2022-12-24T10:59:07.000Z,4.10
2022-12-24T11:01:45.305Z,4.60
2022-12-24T11:04:27.052Z,3.40
2022-12-24T11:07:02.363Z,3.50
2022-12-24T11:09:39.422Z,3.70
2022-12-24T11:12:16.655Z,3.50
2022-12-24T11:14:43.116Z,3.60
2022-12-24T11:17:20.955Z,3.90
2022-12-24T11:19:49.750Z,3.00
2022-12-24T11:22:24.408Z,3.30
2022-12-24T11:25:31.733Z,2.70
2022-12-24T11:28:12.424Z,2.80
2022-12-24T11:30:39.141Z,2.60
2022-12-24T11:33:08.563Z,3.10
2022-12-24T11:35:41.255Z,2.80
2022-12-24T11:38:07.610Z,2.90
2022-12-24T11:40:35.695Z,2.70
2022-12-24T11:43:06.352Z,3.50
2022-12-24T11:45:37.406Z,3.10
2022-12-24T11:48:23.777Z,3.20
2022-12-24T11:50:59.309Z,3.50
2022-12-24T11:53:33.377Z,3.10
2022-12-24T11:56:05.148Z,3.60
2022-12-24T11:58:46.029Z,3.70
2022-12-24T12:01:18.847Z,3.70
2022-12-24T12:03:48.552Z,3.40
2022-12-24T12:06:56.904Z,3.40
2022-12-24T12:09:34.434Z,2.90
2022-12-24T12:12:14.090Z,2.80
2022-12-24T12:14:46.307Z,2.80
2022-12-24T12:17:27.038Z,2.20
2022-12-24T12:20:00.194Z,2.00
2022-12-24T12:22:45.117Z,2.30
2022-12-24T12:25:21.781Z,2.50
2022-12-24T12:27:52.948Z,3.10
2022-12-24T12:30:21.749Z,2.00
2022-12-24T12:33:02.587Z,2.20
2022-12-24T12:35:34.176Z,2.10
2022-12-24T12:38:12.182Z,2.20
2022-12-24T12:41:03.593Z,2.20
2022-12-24T12:44:02.333Z,2.50
2022-12-24T12:46:47.085Z,2.00
2022-12-24T12:49:25.729Z,2.40
2022-12-24T12:52:17.050Z,1.90
2022-12-24T12:55:02.539Z,2.20
2022-12-24T12:57:35.087Z,2.20
2022-12-24T13:00:06.470Z,1.70
2022-12-24T13:02:51.178Z,1.90
2022-12-24T13:05:29.529Z,1.80
2022-12-24T13:08:20.950Z,1.90
2022-12-24T13:11:21.145Z,1.90
2022-12-24T13:13:55.679Z,1.60
2022-12-24T13:16:25.413Z,2.00
2022-12-24T13:19:09.976Z,1.90
2022-12-24T13:21:36.453Z,2.10
2022-12-24T13:24:15.589Z,2.30
2022-12-24T13:26:42.900Z,1.90
2022-12-24T13:29:35.405Z,2.00
2022-12-24T13:32:20.199Z,2.20
2022-12-24T13:35:00.932Z,2.50
2022-12-24T13:37:30.365Z,2.80
2022-12-24T13:40:05.840Z,2.60
2022-12-24T13:42:58.684Z,2.50
2022-12-24T13:45:34.348Z,2.50
2022-12-24T13:48:06.634Z,3.90
2022-12-24T13:50:53.589Z,2.60
2022-12-24T13:53:26.449Z,2.70
2022-12-24T13:56:21.519Z,1.30
2022-12-24T13:59:10.499Z,0.90
2022-12-24T14:01:40.613Z,0.90
2022-12-24T14:04:10.629Z,0.60
2022-12-24T14:06:41.210Z,0.90
2022-12-24T14:09:15.574Z,1.00
2022-12-24T14:11:56.007Z,0.80
2022-12-24T14:14:33.757Z,1.10
2022-12-24T14:17:03.417Z,1.10
2022-12-24T14:19:40.797Z,1.20
2022-12-24T14:22:27.116Z,0.80
2022-12-24T14:24:58.272Z,1.20
2022-12-24T14:27:47.933Z,1.30
2022-12-24T14:30:22.715Z,1.30
2022-12-24T14:32:50.332Z,1.40
2022-12-24T14:35:23.415Z,1.60
2022-12-24T14:38:13.269Z,1.40
2022-12-24T14:41:06.213Z,1.80
2022-12-24T14:44:00.641Z,1.70
2022-12-24T14:46:38.034Z,2.00
2022-12-24T14:49:22.202Z,1.90
2022-12-24T14:52:18.453Z,2.20
2022-12-24T14:54:53.885Z,2.10
2022-12-24T14:57:26.279Z,2.10
2022-12-24T15:00:00.569Z,2.30
2022-12-24T15:02:37.655Z,2.10
2022-12-24T15:05:23.475Z,2.30
2022-12-24T15:07:56.809Z,2.20
2022-12-24T15:10:35.482Z,2.10
2022-12-24T15:13:05.546Z,2.50
2022-12-24T15:15:33.892Z,2.90
2022-12-24T15:18:02.280Z,2.70
2022-12-24T15:20:29.725Z,2.80
2022-12-24T15:22:58.050Z,2.80
2022-12-24T15:25:30.535Z,2.90
2022-12-24T15:27:57.495Z,3.50
2022-12-24T15:30:28.014Z,3.50
2022-12-24T15:32:56.838Z,3.20
2022-12-24T15:35:56.619Z,3.90
2022-12-24T15:38:34.755Z,3.80
2022-12-24T15:41:04.702Z,3.70
2022-12-24T15:43:32.691Z,3.70
2022-12-24T15:46:00.553Z,3.70
2022-12-24T15:48:30.080Z,4.80
2022-12-24T15:51:02.596Z,4.00
2022-12-24T15:53:32.094Z,5.30
2022-12-24T15:56:27.669Z,4.80
2022-12-24T15:59:17.912Z,4.60
2022-12-24T16:01:45.524Z,5.40
2022-12-24T16:04:15.352Z,5.40
2022-12-24T16:06:53.707Z,6.20
2022-12-24T16:09:42.525Z,5.90
2022-12-24T16:12:15.798Z,6.50
2022-12-24T16:14:48.103Z,6.10
2022-12-24T16:17:20.691Z,6.20
2022-12-24T16:19:50.427Z,5.90
2022-12-24T16:22:31.950Z,6.40
2022-12-24T16:25:22.927Z,6.40
2022-12-24T16:27:50.759Z,6.50
2022-12-24T16:30:18.606Z,7.10
2022-12-24T16:32:46.106Z,6.80
2022-12-24T16:35:33.216Z,6.70
2022-12-24T16:37:59.742Z,6.60
2022-12-24T16:40:27.992Z,6.70
2022-12-24T16:43:16.296Z,6.60
2022-12-24T16:45:44.836Z,6.50
2022-12-24T16:48:19.220Z,6.10
2022-12-24T16:50:45.747Z,6.10
2022-12-24T16:53:17.893Z,6.00
2022-12-24T16:55:45.970Z,6.70
2022-12-24T16:58:14.292Z,6.50
2022-12-24T17:00:41.942Z,5.80
2022-12-24T17:03:09.256Z,7.70
2022-12-24T17:05:40.664Z,7.10
2022-12-24T17:08:08.093Z,10.60
2022-12-24T17:10:35.339Z,7.60
2022-12-24T17:13:02.063Z,7.50
2022-12-24T17:15:29.199Z,7.80
2022-12-24T17:17:55.678Z,7.90
2022-12-24T17:20:24.439Z,6.80
2022-12-24T17:22:51.418Z,7.00
2022-12-24T17:25:18.028Z,6.80
2022-12-24T17:27:44.537Z,6.60
2022-12-24T17:30:11.273Z,6.70
2022-12-24T17:32:37.689Z,6.10
2022-12-24T17:35:04.477Z,6.70
2022-12-24T17:37:30.986Z,6.10
2022-12-24T17:39:57.475Z,6.20
2022-12-24T17:42:24.037Z,6.40
2022-12-24T17:44:50.539Z,6.20
2022-12-24T17:47:17.051Z,6.70
2022-12-24T17:49:43.474Z,7.10
2022-12-24T17:52:09.976Z,6.50
2022-12-24T17:54:36.505Z,7.00
2022-12-24T17:57:03.035Z,6.30
2022-12-24T17:59:29.464Z,6.10
2022-12-24T18:01:56.015Z,5.90
2022-12-24T18:04:22.653Z,6.30
2022-12-24T18:06:49.945Z,6.00
2022-12-24T18:09:17.162Z,6.60
2022-12-24T18:11:43.585Z,5.60
2022-12-24T18:14:13.957Z,6.40
2022-12-24T18:16:41.210Z,6.90
2022-12-24T18:19:10.378Z,5.90
2022-12-24T18:21:36.788Z,6.50
2022-12-24T18:24:03.788Z,7.00
2022-12-24T18:26:30.760Z,5.90
2022-12-24T18:29:00.020Z,7.10
2022-12-24T18:31:28.803Z,6.70
2022-12-24T18:33:56.761Z,9.30
2022-12-24T18:36:23.677Z,9.30
2022-12-24T18:38:50.596Z,6.20
2022-12-24T18:41:20.306Z,5.80
2022-12-24T18:43:47.139Z,5.70
2022-12-24T18:46:15.816Z,6.50
2022-12-24T18:48:42.680Z,5.60
2022-12-24T18:51:10.211Z,6.00
2022-12-24T18:53:36.806Z,7.10
2022-12-24T18:56:10.307Z,6.70
2022-12-24T18:58:37.921Z,6.60
2022-12-24T19:01:26.368Z,6.10
2022-12-24T19:03:53.534Z,7.10
2022-12-24T19:06:21.000Z,8.20
2022-12-24T19:08:57.875Z,7.20
2022-12-24T19:11:27.154Z,7.40
2022-12-24T19:13:53.611Z,7.60
2022-12-24T19:16:21.047Z,6.90
2022-12-24T19:18:47.661Z,7.50
2022-12-24T19:21:15.514Z,9.10
2022-12-24T19:23:42.050Z,8.00
2022-12-24T19:26:10.125Z,9.50
2022-12-24T19:28:36.599Z,8.80
2022-12-24T19:31:11.844Z,8.80
2022-12-24T19:33:44.658Z,8.40
2022-12-24T19:36:14.622Z,9.10
2022-12-24T19:38:41.073Z,9.50
2022-12-24T19:41:09.459Z,9.00
2022-12-24T19:43:38.302Z,9.60
2022-12-24T19:46:04.972Z,8.90
2022-12-24T19:48:31.596Z,9.60
2022-12-24T19:51:05.492Z,9.90
2022-12-24T19:53:31.995Z,10.70
2022-12-24T19:55:58.927Z,10.60
2022-12-24T19:58:26.969Z,12.50
2022-12-24T20:00:53.907Z,10.00
2022-12-24T20:03:20.915Z,9.90
2022-12-24T20:05:47.585Z,9.50
2022-12-24T20:08:14.043Z,9.20
2022-12-24T20:10:42.113Z,9.10
2022-12-24T20:13:09.412Z,9.10
2022-12-24T20:15:40.324Z,8.90
2022-12-24T20:18:07.395Z,8.40
2022-12-24T20:20:34.213Z,8.50
2022-12-24T20:23:01.264Z,8.40
2022-12-24T20:25:27.747Z,8.30
2022-12-24T20:27:54.424Z,9.10
2022-12-24T20:30:20.955Z,8.50
2022-12-24T20:33:06.444Z,8.90
2022-12-24T20:35:34.982Z,9.00
2022-12-24T20:38:01.403Z,8.90
2022-12-24T20:40:27.789Z,8.80
2022-12-24T20:42:54.189Z,9.60
2022-12-24T20:45:20.731Z,8.90
2022-12-24T20:47:47.145Z,9.20
2022-12-24T20:50:13.974Z,8.80
2022-12-24T20:52:40.565Z,8.70
2022-12-24T20:55:07.162Z,8.90
2022-12-24T20:57:36.482Z,9.20
2022-12-24T21:00:05.038Z,9.60
2022-12-24T21:02:31.607Z,9.00
2022-12-24T21:05:02.024Z,8.90
2022-12-24T21:07:29.316Z,8.80
2022-12-24T21:09:55.775Z,8.40
2022-12-24T21:12:40.917Z,8.60
2022-12-24T21:15:07.544Z,8.80
2022-12-24T21:17:33.965Z,9.10
2022-12-24T21:20:00.595Z,9.10
2022-12-24T21:22:27.065Z,9.40
2022-12-24T21:24:53.489Z,8.90
2022-12-24T21:27:19.920Z,9.00
2022-12-24T21:29:46.591Z,9.40
2022-12-24T21:32:13.142Z,8.60
2022-12-24T21:34:39.584Z,9.70
2022-12-24T21:37:06.035Z,8.90
2022-12-24T21:39:32.561Z,9.90
2022-12-24T21:41:59.046Z,9.90
2022-12-24T21:44:25.568Z,10.20
2022-12-24T21:46:51.993Z,10.80
2022-12-24T21:49:37.254Z,10.80
2022-12-24T21:52:04.063Z,11.10
2022-12-24T21:54:31.394Z,11.30
2022-12-24T21:57:19.651Z,11.20
2022-12-24T21:59:49.127Z,11.40
2022-12-24T22:02:16.468Z,11.40
2022-12-24T22:04:43.929Z,10.10
2022-12-24T22:07:46.543Z,11.70
2022-12-24T22:10:33.174Z,11.20
2022-12-24T22:13:00.762Z,11.30
2022-12-24T22:15:27.401Z,10.40
2022-12-24T22:17:53.815Z,10.70
2022-12-24T22:20:20.244Z,10.90
2022-12-24T22:22:48.673Z,11.00
2022-12-24T22:25:15.619Z,11.70
2022-12-24T22:27:41.994Z,10.90
2022-12-24T22:30:09.334Z,11.60
2022-12-24T22:32:36.067Z,10.80
2022-12-24T22:35:02.548Z,11.30
2022-12-24T22:37:29.001Z,11.80
2022-12-24T22:39:55.699Z,11.30
2022-12-24T22:42:22.147Z,12.20
2022-12-24T22:44:48.814Z,11.60
2022-12-24T22:47:15.292Z,12.40
2022-12-24T22:49:41.677Z,12.20
2022-12-24T22:52:08.225Z,12.40
2022-12-24T22:54:36.218Z,12.50
2022-12-24T22:57:02.645Z,13.10
2022-12-24T22:59:29.201Z,11.70
2022-12-24T23:01:56.423Z,12.00
2022-12-24T23:04:23.052Z,11.60
2022-12-24T23:06:49.655Z,10.90
2022-12-24T23:09:17.422Z,10.10
2022-12-24T23:11:44.878Z,11.20
2022-12-24T23:14:38.789Z,11.10
2022-12-24T23:17:06.282Z,11.00
2022-12-24T23:19:33.560Z,10.20
2022-12-24T23:22:01.817Z,9.70
2022-12-24T23:24:28.645Z,10.70
2022-12-24T23:26:55.780Z,10.20
2022-12-24T23:29:22.191Z,9.70
2022-12-24T23:31:48.641Z,11.30
2022-12-24T23:34:15.089Z,11.40
2022-12-24T23:36:41.537Z,9.90
2022-12-24T23:39:07.928Z,9.80
2022-12-24T23:41:34.339Z,11.00
2022-12-24T23:44:00.836Z,9.50
2022-12-24T23:46:27.376Z,10.10
2022-12-24T23:48:55.107Z,10.40
2022-12-24T23:51:25.036Z,10.40
2022-12-24T23:53:53.421Z,9.50
2022-12-24T23:56:21.238Z,9.50
2022-12-24T23:58:48.677Z,10.20
